createdAt,value
2022-12-18T00:00:31.372Z,49.0
2022-12-18T00:05:37.579Z,47.0
2022-12-18T00:10:43.800Z,44.0
2022-12-18T00:15:50.019Z,44.0
2022-12-18T00:20:56.199Z,43.0
2022-12-18T00:26:02.404Z,44.0
2022-12-18T00:31:08.660Z,44.0
2022-12-18T00:36:14.834Z,43.0
2022-12-18T00:41:21.021Z,41.5
2022-12-18T00:46:26.246Z,39.0
2022-12-18T00:51:32.446Z,40.5
2022-12-18T00:56:48.070Z,38.0
2022-12-18T01:01:45.144Z,37.0
2022-12-18T01:06:51.100Z,38.0
2022-12-18T01:11:57.271Z,38.0
2022-12-18T01:17:02.518Z,38.0
2022-12-18T01:22:08.707Z,34.5
2022-12-18T01:27:14.914Z,36.0
2022-12-18T01:32:21.125Z,34.5
2022-12-18T01:37:27.326Z,33.0
2022-12-18T01:42:33.559Z,34.0
2022-12-18T01:47:39.742Z,34.0
2022-12-18T01:52:45.961Z,30.0
2022-12-18T01:57:52.163Z,32.5
2022-12-18T02:02:58.514Z,31.0
2022-12-18T02:08:04.614Z,28.0
2022-12-18T02:13:10.777Z,29.0
2022-12-18T02:18:16.977Z,30.0
2022-12-18T02:23:23.190Z,29.0
2022-12-18T02:28:29.491Z,27.0
2022-12-18T02:33:35.969Z,29.0
2022-12-18T02:38:41.805Z,30.0
2022-12-18T02:43:48.012Z,27.0
2022-12-18T02:48:54.228Z,28.0
2022-12-18T02:54:00.429Z,26.0
2022-12-18T02:59:06.634Z,26.0
2022-12-18T03:04:12.836Z,25.0
2022-12-18T03:09:19.051Z,24.0
2022-12-18T03:14:25.261Z,25.0
2022-12-18T03:19:31.459Z,25.0
2022-12-18T03:24:37.665Z,25.0
2022-12-18T03:29:43.869Z,22.0
2022-12-18T03:34:50.077Z,26.0
2022-12-18T03:39:56.292Z,22.0
2022-12-18T03:45:02.492Z,24.0
2022-12-18T03:50:12.654Z,25.0
2022-12-18T03:55:14.922Z,22.0
2022-12-18T04:00:21.124Z,23.0
2022-12-18T04:05:27.322Z,21.0
2022-12-18T04:10:33.607Z,22.0
2022-12-18T04:15:39.812Z,21.0
2022-12-18T04:20:45.946Z,21.0
2022-12-18T04:25:52.146Z,21.0
2022-12-18T04:30:58.426Z,21.0
2022-12-18T04:36:04.562Z,20.0
2022-12-18T04:41:10.767Z,21.0
2022-12-18T04:46:17.054Z,20.0
2022-12-18T04:56:29.392Z,20.0
2022-12-18T05:01:35.705Z,20.5
2022-12-18T05:06:41.825Z,20.0
2022-12-18T05:11:48.004Z,18.0
2022-12-18T05:22:00.419Z,18.0
2022-12-18T05:27:06.626Z,19.5
2022-12-18T05:32:12.845Z,20.0
2022-12-18T05:37:19.038Z,19.0
2022-12-18T05:42:25.246Z,19.0
2022-12-18T05:47:31.456Z,20.0
2022-12-18T05:52:37.665Z,19.0
2022-12-18T05:57:43.866Z,21.0
2022-12-18T06:02:50.205Z,19.0
2022-12-18T06:07:56.287Z,19.0
2022-12-18T06:13:02.481Z,20.0
2022-12-18T06:18:08.716Z,19.0
2022-12-18T06:23:14.893Z,21.0
2022-12-18T06:28:21.103Z,21.0
2022-12-18T06:33:27.433Z,20.0
2022-12-18T06:38:33.515Z,21.5
2022-12-18T06:43:39.990Z,20.5
2022-12-18T06:48:44.950Z,21.0
2022-12-18T06:53:51.147Z,21.0
2022-12-18T06:58:57.360Z,20.0
2022-12-18T07:04:03.568Z,19.0
2022-12-18T07:09:09.770Z,19.0
2022-12-18T07:14:15.980Z,18.0
2022-12-18T07:19:22.188Z,18.0
2022-12-18T07:24:28.398Z,19.0
2022-12-18T07:29:34.599Z,18.0
2022-12-18T07:34:40.809Z,18.0
2022-12-18T07:39:47.020Z,17.0
2022-12-18T07:44:53.219Z,18.0
2022-12-18T07:49:59.430Z,16.5
2022-12-18T07:55:05.636Z,17.0
2022-12-18T08:00:12.153Z,18.0
2022-12-18T08:05:18.052Z,19.0
2022-12-18T08:10:24.255Z,16.5
2022-12-18T08:15:30.459Z,18.0
2022-12-18T08:20:36.668Z,18.0
2022-12-18T08:25:42.878Z,19.0
2022-12-18T08:35:55.406Z,19.5
2022-12-18T08:41:01.505Z,17.0
2022-12-18T08:46:08.125Z,18.0
2022-12-18T08:51:13.918Z,18.0
2022-12-18T08:56:20.149Z,18.0
2022-12-18T09:01:26.416Z,17.0
2022-12-18T09:06:32.587Z,18.0
2022-12-18T09:11:38.773Z,18.0
2022-12-18T09:16:45.040Z,17.5
2022-12-18T09:21:51.202Z,17.0
2022-12-18T09:26:58.089Z,19.0
2022-12-18T09:32:03.632Z,16.0
2022-12-18T09:37:09.840Z,16.5
2022-12-18T09:42:16.058Z,18.0
2022-12-18T09:47:22.280Z,17.0
2022-12-18T09:52:28.507Z,17.0
2022-12-18T09:57:34.674Z,18.0
2022-12-18T10:03:02.885Z,17.0
2022-12-18T10:07:47.095Z,17.0
2022-12-18T10:12:53.303Z,16.0
2022-12-18T10:17:59.659Z,17.0
2022-12-18T10:23:05.718Z,16.0
2022-12-18T10:28:11.920Z,16.0
2022-12-18T10:33:18.147Z,16.0
2022-12-18T10:38:24.389Z,16.0
2022-12-18T10:43:30.846Z,15.0
2022-12-18T10:48:36.794Z,16.0
2022-12-18T10:53:43.060Z,14.0
2022-12-18T10:58:49.169Z,15.0
2022-12-18T11:04:01.657Z,17.0
2022-12-18T11:09:01.601Z,16.0
2022-12-18T11:14:07.791Z,16.0
2022-12-18T11:19:14.106Z,16.0
2022-12-18T11:24:20.204Z,16.0
2022-12-18T11:29:26.795Z,16.0
2022-12-18T11:34:32.615Z,16.0
2022-12-18T11:39:38.823Z,16.0
2022-12-18T11:44:45.029Z,16.0
2022-12-18T11:49:51.237Z,17.0
2022-12-18T11:54:57.457Z,16.0
2022-12-18T12:00:03.651Z,16.0
2022-12-18T12:05:09.862Z,18.0
2022-12-18T12:10:16.071Z,16.0
2022-12-18T12:15:22.272Z,15.0
2022-12-18T12:20:27.494Z,17.0
2022-12-18T12:25:33.697Z,17.0
2022-12-18T12:30:39.898Z,16.0
2022-12-18T12:35:46.109Z,15.0
2022-12-18T12:40:57.060Z,17.0
2022-12-18T12:45:58.551Z,15.0
2022-12-18T12:51:04.738Z,16.0
2022-12-18T12:56:10.994Z,16.0
2022-12-18T13:01:23.158Z,15.0
2022-12-18T13:06:23.356Z,17.0
2022-12-18T13:11:29.558Z,18.0
2022-12-18T13:16:35.793Z,17.0
2022-12-18T13:21:41.989Z,17.0
2022-12-18T13:26:48.180Z,18.0
2022-12-18T13:31:54.388Z,17.5
2022-12-18T13:37:00.595Z,18.0
2022-12-18T13:42:06.805Z,17.0
2022-12-18T13:47:13.011Z,17.0
2022-12-18T13:52:19.215Z,17.0
2022-12-18T13:57:25.421Z,17.0
2022-12-18T14:02:31.778Z,16.0
2022-12-18T14:07:51.337Z,18.0
2022-12-18T14:12:44.041Z,17.0
2022-12-18T14:17:50.252Z,16.5
2022-12-18T14:22:56.462Z,19.0
2022-12-18T14:28:02.671Z,17.0
2022-12-18T14:33:08.876Z,20.5
2022-12-18T14:38:15.098Z,19.0
2022-12-18T14:43:21.288Z,17.0
2022-12-18T14:48:27.543Z,17.0
2022-12-18T14:53:33.699Z,17.0
2022-12-18T14:58:39.912Z,18.0
2022-12-18T15:03:46.202Z,19.0
2022-12-18T15:08:52.350Z,19.0
2022-12-18T15:13:58.530Z,18.0
2022-12-18T15:19:04.745Z,19.0
2022-12-18T15:24:10.943Z,20.0
2022-12-18T15:29:17.167Z,21.0
2022-12-18T15:34:23.404Z,19.0
2022-12-18T15:39:29.563Z,20.0
2022-12-18T15:44:35.785Z,19.0
2022-12-18T15:49:42.002Z,18.0
2022-12-18T15:54:48.189Z,21.0
2022-12-18T15:59:54.395Z,19.0
2022-12-18T16:05:00.629Z,21.0
2022-12-18T16:10:06.815Z,21.0
2022-12-18T16:15:13.035Z,22.0
2022-12-18T16:20:19.318Z,22.0
2022-12-18T16:25:25.502Z,23.0
2022-12-18T16:30:33.664Z,22.0
2022-12-18T16:35:37.917Z,22.0
2022-12-18T16:40:44.059Z,22.5
2022-12-18T16:45:50.257Z,21.0
2022-12-18T16:50:56.796Z,22.0
2022-12-18T16:56:02.673Z,23.0
2022-12-18T17:01:08.891Z,23.0
2022-12-18T17:06:15.089Z,23.0
2022-12-18T17:11:21.293Z,22.0
2022-12-18T17:16:27.570Z,24.0
2022-12-18T17:21:33.707Z,23.0
2022-12-18T17:26:39.918Z,23.5
2022-12-18T17:31:46.183Z,23.0
2022-12-18T17:36:52.329Z,23.0
2022-12-18T17:41:58.536Z,21.5
2022-12-18T17:47:04.768Z,23.0
2022-12-18T17:52:09.960Z,23.0
2022-12-18T17:57:16.171Z,24.0
2022-12-18T18:02:22.602Z,22.0
2022-12-18T18:07:28.585Z,24.0
2022-12-18T18:12:34.802Z,25.5
2022-12-18T18:17:41.001Z,23.0
2022-12-18T18:22:46.433Z,27.0
2022-12-18T18:27:52.437Z,24.0
2022-12-18T18:32:58.638Z,24.0
2022-12-18T18:38:04.851Z,25.0
2022-12-18T18:43:11.062Z,25.0
2022-12-18T18:48:17.264Z,25.0
2022-12-18T18:53:23.471Z,23.0
2022-12-18T18:58:30.011Z,23.0
2022-12-18T19:03:35.882Z,24.0
2022-12-18T19:08:42.548Z,25.0
2022-12-18T19:13:48.303Z,24.0
2022-12-18T19:19:01.333Z,24.0
2022-12-18T19:24:00.710Z,23.0
2022-12-18T19:29:07.134Z,26.0
2022-12-18T19:34:13.127Z,26.0
2022-12-18T19:39:19.421Z,25.5
2022-12-18T19:44:25.540Z,23.0
2022-12-18T19:49:31.753Z,26.0
2022-12-18T19:54:37.960Z,25.0
2022-12-18T19:59:44.161Z,25.0
2022-12-18T20:04:50.367Z,25.5
2022-12-18T20:10:02.711Z,24.0
2022-12-18T20:15:02.789Z,27.0
2022-12-18T20:20:09.112Z,26.0
2022-12-18T20:25:15.196Z,27.0
2022-12-18T20:30:21.410Z,30.0
2022-12-18T20:35:27.612Z,27.5
2022-12-18T20:40:33.819Z,27.5
2022-12-18T20:45:41.324Z,29.0
2022-12-18T20:50:46.412Z,27.0
2022-12-18T20:55:52.440Z,28.0
2022-12-18T21:00:58.695Z,28.0
2022-12-18T21:06:04.869Z,29.0
2022-12-18T21:11:11.074Z,30.0
2022-12-18T21:16:17.393Z,31.0
2022-12-18T21:21:26.635Z,28.0
2022-12-18T21:26:29.698Z,29.0
2022-12-18T21:31:35.908Z,30.0
2022-12-18T21:36:42.117Z,29.0
2022-12-18T21:41:48.314Z,29.5
2022-12-18T21:46:57.424Z,34.0
2022-12-18T21:52:00.732Z,30.5
2022-12-18T21:57:06.949Z,31.0
2022-12-18T22:02:13.349Z,32.0
2022-12-18T22:07:19.360Z,32.5
2022-12-18T22:12:25.610Z,31.0
2022-12-18T22:17:31.767Z,32.0
2022-12-18T22:22:37.968Z,32.0
2022-12-18T22:27:44.179Z,33.0
2022-12-18T22:32:50.507Z,34.0
2022-12-18T22:37:56.595Z,34.0
2022-12-18T22:43:02.806Z,34.5
2022-12-18T22:48:09.002Z,35.0
2022-12-18T22:53:15.242Z,33.0
2022-12-18T22:58:21.448Z,32.5
2022-12-18T23:03:27.697Z,32.5
2022-12-18T23:08:33.851Z,35.0
2022-12-18T23:13:40.062Z,32.5
2022-12-18T23:18:46.269Z,33.0
2022-12-18T23:23:52.471Z,35.0
2022-12-18T23:28:58.703Z,35.0
2022-12-18T23:34:04.887Z,33.0
2022-12-18T23:39:11.167Z,36.0
2022-12-18T23:44:17.302Z,33.5
2022-12-18T23:49:23.513Z,36.0
2022-12-18T23:54:32.896Z,34.0
2022-12-18T23:59:34.939Z,33.0
